Time;durP1;ratioP1;P1;durP2;ratioP2;P2;SDS_P1;SDS_P2;PMS_P1;PMS_P2;Temp;Humidity;BMP_temperature;BMP_pressure;BME280_temperature;BME280_humidity;BME280_pressure;Samples;Min_cycle;Max_cycle;Signal;HPM_P1;HPM_P2
2023/03/23 00:01:30;;;;;;;1.35;1.20;;;;;10.80;93544.00;;;;7403520;19;20141;-77
2023/03/23 00:04:03;;;;;;;1.75;1.00;;;;;10.70;93537.00;;;;7403146;19;20140;-75
2023/03/23 00:06:34;;;;;;;1.30;1.20;;;;;10.80;93530.00;;;;7404206;19;20136;-75
2023/03/23 00:09:09;;;;;;;2.85;1.50;;;;;10.80;93530.00;;;;7403112;19;20587;-74
2023/03/23 00:11:38;;;;;;;2.92;1.40;;;;;10.70;93529.00;;;;7404154;19;20168;-75
2023/03/23 00:14:22;;;;;;;1.20;1.10;;;;;10.90;93525.00;;;;7402765;19;20483;-74
2023/03/23 00:17:03;;;;;;;3.08;1.25;;;;;10.90;93534.00;;;;7402055;19;20477;-74
2023/03/23 00:19:45;;;;;;;1.85;1.15;;;;;11.00;93527.00;;;;7402146;19;20626;-75
2023/03/23 00:22:21;;;;;;;2.13;1.38;;;;;10.90;93532.00;;;;7403289;19;20151;-75
2023/03/23 00:24:55;;;;;;;2.50;1.40;;;;;11.00;93526.00;;;;7402450;19;20143;-75
2023/03/23 00:27:24;;;;;;;2.05;1.30;;;;;10.90;93525.00;;;;7400880;19;20145;-75
2023/03/23 00:29:58;;;;;;;1.80;1.40;;;;;10.90;93522.00;;;;7398533;19;20139;-74
2023/03/23 00:32:27;;;;;;;1.40;1.30;;;;;10.90;93515.00;;;;7392339;19;20647;-74
2023/03/23 00:35:00;;;;;;;1.50;1.35;;;;;10.90;93504.00;;;;7402191;19;20128;-74
2023/03/23 00:37:29;;;;;;;1.30;1.20;;;;;10.70;93505.00;;;;7401464;19;20152;-75
2023/03/23 00:40:08;;;;;;;4.50;1.50;;;;;10.70;93499.00;;;;7400989;19;20487;-75
2023/03/23 00:42:43;;;;;;;2.63;1.27;;;;;10.90;93512.00;;;;7399097;19;20604;-74
2023/03/23 00:45:17;;;;;;;3.97;1.58;;;;;10.80;93499.00;;;;7402235;19;20488;-74
2023/03/23 00:47:46;;;;;;;1.77;1.50;;;;;10.70;93500.00;;;;7400028;19;20164;-76
2023/03/23 00:50:21;;;;;;;2.42;1.30;;;;;10.70;93497.00;;;;7402006;19;20129;-74
2023/03/23 00:53:05;;;;;;;3.85;1.27;;;;;10.70;93497.00;;;;7400576;19;20603;-75
2023/03/23 00:55:35;;;;;;;1.40;1.13;;;;;10.60;93496.00;;;;7400929;19;20600;-75
2023/03/23 00:58:10;;;;;;;1.88;1.30;;;;;10.50;93496.00;;;;7400240;19;20144;-75
2023/03/23 01:00:39;;;;;;;1.40;1.27;;;;;10.60;93491.00;;;;7401610;19;20139;-76
2023/03/23 01:03:17;;;;;;;2.00;1.58;;;;;10.60;93505.00;;;;7400050;19;20216;-76
2023/03/23 01:05:47;;;;;;;3.83;1.45;;;;;10.50;93506.00;;;;7400063;19;20148;-75
2023/03/23 01:08:22;;;;;;;1.30;1.20;;;;;10.50;93503.00;;;;7401560;19;20191;-76
2023/03/23 01:10:51;;;;;;;1.55;1.35;;;;;10.60;93503.00;;;;7399870;19;20149;-75
2023/03/23 01:13:24;;;;;;;1.77;1.50;;;;;10.70;93505.00;;;;7399968;19;20151;-75
2023/03/23 01:16:05;;;;;;;1.55;1.20;;;;;10.80;93485.00;;;;7401771;19;20127;-76
2023/03/23 01:18:42;;;;;;;4.57;1.50;;;;;10.80;93487.00;;;;7400181;19;20588;-76
2023/03/23 01:21:15;;;;;;;2.13;1.30;;;;;10.60;93489.00;;;;7399658;19;20169;-74
2023/03/23 01:23:50;;;;;;;1.60;1.17;;;;;10.60;93483.00;;;;7400940;19;20615;-76
2023/03/23 01:26:26;;;;;;;2.10;1.40;;;;;10.20;93482.00;;;;7396229;19;20656;-75
2023/03/23 01:28:54;;;;;;;2.13;1.13;;;;;10.10;93467.00;;;;7397079;19;20148;-76
2023/03/23 01:31:28;;;;;;;1.90;1.30;;;;;9.90;93471.00;;;;7398858;19;20144;-81
2023/03/23 01:33:56;;;;;;;2.85;1.50;;;;;9.80;93464.00;;;;7399356;19;20200;-75
2023/03/23 01:36:32;;;;;;;2.10;1.13;;;;;9.70;93465.00;;;;7401307;19;20165;-75
2023/03/23 01:39:06;;;;;;;2.92;1.60;;;;;9.70;93465.00;;;;7400844;19;20512;-76
2023/03/23 01:41:41;;;;;;;1.67;1.33;;;;;9.70;93453.00;;;;7399604;19;20204;-73
2023/03/23 01:44:32;;;;;;;1.60;1.50;;;;;9.60;93459.00;;;;7398682;19;20464;-75
2023/03/23 01:47:05;;;;;;;1.77;1.30;;;;;9.50;93448.00;;;;7395028;19;20212;-74
2023/03/23 01:49:39;;;;;;;4.35;1.40;;;;;9.30;93445.00;;;;7398274;19;20145;-74
2023/03/23 01:52:21;;;;;;;2.03;1.50;;;;;9.30;93453.00;;;;7398610;19;20149;-75
2023/03/23 01:54:50;;;;;;;2.20;1.58;;;;;9.40;93452.00;;;;7399822;19;20548;-74
2023/03/23 01:57:27;;;;;;;1.70;1.40;;;;;9.30;93447.00;;;;7397744;19;20144;-75
2023/03/23 02:00:11;;;;;;;2.00;1.53;;;;;9.40;93451.00;;;;7397642;19;20135;-73
2023/03/23 02:02:49;;;;;;;1.93;1.50;;;;;9.30;93447.00;;;;7397801;19;20144;-76
2023/03/23 02:05:53;;;;;;;2.22;1.58;;;;;9.20;93453.00;;;;7397413;19;20140;-77
2023/03/23 02:08:28;;;;;;;1.80;1.23;;;;;9.20;93445.00;;;;7396937;19;20483;-76
2023/03/23 02:11:16;;;;;;;1.77;1.53;;;;;9.20;93446.00;;;;7398110;19;20169;-76
2023/03/23 02:13:49;;;;;;;1.50;1.23;;;;;9.00;93446.00;;;;7397259;19;20129;-77
2023/03/23 02:16:44;;;;;;;2.93;1.40;;;;;8.90;93442.00;;;;7397683;19;20145;-76
2023/03/23 02:19:33;;;;;;;2.23;1.60;;;;;8.90;93445.00;;;;7399147;19;20125;-77
2023/03/23 02:22:27;;;;;;;1.43;1.33;;;;;8.80;93431.00;;;;7397263;19;20179;-76
2023/03/23 02:25:13;;;;;;;3.00;1.40;;;;;8.90;93421.00;;;;7397020;19;20672;-76
2023/03/23 02:28:09;;;;;;;3.40;1.63;;;;;9.00;93415.00;;;;7397771;19;20467;-76
2023/03/23 02:31:07;;;;;;;2.77;1.80;;;;;8.80;93416.00;;;;7398829;19;20466;-76
2023/03/23 02:34:02;;;;;;;2.27;1.60;;;;;9.10;93411.00;;;;7396325;19;20145;-77
2023/03/23 02:36:46;;;;;;;3.27;1.53;;;;;9.10;93392.00;;;;7396792;19;20151;-78
2023/03/23 02:39:24;;;;;;;4.13;1.80;;;;;9.20;93390.00;;;;7396547;19;20615;-78
2023/03/23 02:42:04;;;;;;;1.63;1.40;;;;;9.10;93392.00;;;;7394785;19;20224;-77
2023/03/23 02:44:44;;;;;;;2.03;1.50;;;;;9.10;93384.00;;;;7396268;19;20153;-77
2023/03/23 02:47:20;;;;;;;5.43;1.47;;;;;9.10;93383.00;;;;7396488;19;20152;-76
2023/03/23 02:49:58;;;;;;;3.00;1.50;;;;;9.10;93387.00;;;;7395340;19;20176;-75
2023/03/23 02:52:30;;;;;;;1.73;1.30;;;;;9.00;93398.00;;;;7396114;19;20635;-77
2023/03/23 02:55:07;;;;;;;1.80;1.60;;;;;9.00;93390.00;;;;7398294;19;20136;-78
2023/03/23 02:57:37;;;;;;;2.33;1.50;;;;;9.00;93393.00;;;;7397762;19;20133;-77
2023/03/23 03:00:15;;;;;;;3.77;1.90;;;;;9.00;93384.00;;;;7395700;19;20132;-77
2023/03/23 03:02:54;;;;;;;2.80;1.70;;;;;8.90;93384.00;;;;7396595;19;20212;-78
2023/03/23 03:06:09;;;;;;;2.20;1.70;;;;;9.10;93376.00;;;;7398722;19;20137;-77
2023/03/23 03:08:55;;;;;;;1.70;1.40;;;;;9.10;93369.00;;;;7403757;19;20144;-76
2023/03/23 03:11:31;;;;;;;3.03;1.60;;;;;9.00;93377.00;;;;7405301;19;20133;-77
2023/03/23 03:14:26;;;;;;;2.17;1.43;;;;;9.20;93371.00;;;;7403193;19;20224;-76
2023/03/23 03:17:10;;;;;;;2.60;1.60;;;;;9.20;93369.00;;;;7403135;19;20148;-77
2023/03/23 03:19:48;;;;;;;2.80;1.87;;;;;9.30;93375.00;;;;7404670;19;20133;-78
2023/03/23 03:22:17;;;;;;;2.37;1.70;;;;;9.30;93374.00;;;;7404262;19;20125;-77
2023/03/23 03:24:52;;;;;;;2.67;1.77;;;;;9.40;93370.00;;;;7402991;19;20539;-76
2023/03/23 03:27:49;;;;;;;1.87;1.50;;;;;9.30;93373.00;;;;7402583;19;20133;-77
2023/03/23 03:30:21;;;;;;;1.73;1.33;;;;;9.30;93371.00;;;;7402401;19;20220;-76
2023/03/23 03:33:04;;;;;;;2.00;1.40;;;;;9.40;93371.00;;;;7402589;19;20141;-77
2023/03/23 03:35:36;;;;;;;2.70;1.67;;;;;9.30;93362.00;;;;7402215;19;20133;-76
2023/03/23 03:38:11;;;;;;;2.30;1.60;;;;;9.30;93363.00;;;;7399890;19;20212;-77
2023/03/23 03:40:39;;;;;;;2.00;1.50;;;;;9.30;93361.00;;;;7403082;19;20121;-74
2023/03/23 03:43:13;;;;;;;2.73;1.77;;;;;9.40;93364.00;;;;7402015;19;20168;-76
2023/03/23 03:45:41;;;;;;;3.00;1.37;;;;;9.40;93360.00;;;;7402127;19;20172;-78
2023/03/23 03:48:16;;;;;;;2.10;1.57;;;;;9.30;93351.00;;;;7402002;19;20139;-77
2023/03/23 03:50:45;;;;;;;2.07;1.70;;;;;9.30;93351.00;;;;7399954;19;20146;-77
2023/03/23 03:53:21;;;;;;;2.63;1.43;;;;;9.30;93370.00;;;;7402550;19;20786;-77
2023/03/23 03:55:59;;;;;;;1.83;1.53;;;;;9.50;93368.00;;;;7402571;19;20179;-78
2023/03/23 03:58:35;;;;;;;3.20;1.77;;;;;9.30;93368.00;;;;7402275;19;20153;-76
2023/03/23 04:01:05;;;;;;;2.63;1.70;;;;;9.30;93379.00;;;;7403180;19;20204;-77
2023/03/23 04:03:39;;;;;;;4.05;1.67;;;;;9.40;93372.00;;;;7399394;19;20195;-77
2023/03/23 04:06:07;;;;;;;1.90;1.60;;;;;9.50;93377.00;;;;7402307;19;20504;-77
2023/03/23 04:08:42;;;;;;;2.88;1.58;;;;;10.30;93368.00;;;;7402833;19;20128;-78
2023/03/23 04:11:12;;;;;;;4.40;1.47;;;;;10.70;93365.00;;;;7400582;19;20132;-78
2023/03/23 04:14:05;;;;;;;1.83;1.45;;;;;11.20;93370.00;;;;7400445;19;20149;-78
2023/03/23 04:16:43;;;;;;;2.00;1.30;;;;;11.40;93358.00;;;;7399442;19;20148;-77
2023/03/23 04:19:21;;;;;;;7.60;1.75;;;;;11.90;93347.00;;;;7402536;19;20151;-77
2023/03/23 04:21:50;;;;;;;1.30;1.20;;;;;12.00;93337.00;;;;7401297;19;20197;-76
2023/03/23 04:24:24;;;;;;;1.27;1.10;;;;;12.00;93346.00;;;;7401603;19;20136;-78
2023/03/23 04:27:19;;;;;;;1.40;1.30;;;;;12.20;93350.00;;;;7402772;19;20137;-77
2023/03/23 04:29:52;;;;;;;1.98;1.20;;;;;12.30;93340.00;;;;7400134;19;20149;-78
2023/03/23 04:32:31;;;;;;;2.10;1.13;;;;;12.30;93350.00;;;;7395705;19;20525;-78
2023/03/23 04:35:06;;;;;;;5.10;1.77;;;;;12.50;93358.00;;;;7401412;19;20121;-76
2023/03/23 04:37:42;;;;;;;2.88;1.55;;;;;12.50;93355.00;;;;7401562;19;20143;-79
2023/03/23 04:40:14;;;;;;;1.45;1.30;;;;;12.50;93360.00;;;;7399943;19;20179;-76
2023/03/23 04:42:50;;;;;;;3.47;1.40;;;;;12.50;93355.00;;;;7401578;19;20133;-76
2023/03/23 04:45:26;;;;;;;1.58;1.33;;;;;12.50;93365.00;;;;7399325;19;20595;-77
2023/03/23 04:48:01;;;;;;;4.07;1.20;;;;;12.40;93381.00;;;;7401335;19;20517;-77
2023/03/23 04:50:30;;;;;;;1.42;1.30;;;;;12.50;93378.00;;;;7400026;19;20144;-77
2023/03/23 04:53:06;;;;;;;2.33;1.55;;;;;12.50;93370.00;;;;7400966;19;20615;-75
2023/03/23 04:55:40;;;;;;;3.13;1.30;;;;;12.50;93371.00;;;;7401206;19;20136;-77
2023/03/23 04:58:16;;;;;;;2.47;1.52;;;;;12.60;93384.00;;;;7399875;19;20148;-76
2023/03/23 05:00:49;;;;;;;3.30;1.35;;;;;12.50;93378.00;;;;7400584;19;20149;-77
2023/03/23 05:03:23;;;;;;;1.85;1.23;;;;;12.40;93374.00;;;;7398982;19;20176;-78
2023/03/23 05:05:57;;;;;;;1.90;1.30;;;;;12.50;93386.00;;;;7399833;19;20167;-77
2023/03/23 05:08:31;;;;;;;2.35;1.58;;;;;12.50;93371.00;;;;7397369;19;20125;-78
2023/03/23 05:11:01;;;;;;;2.85;1.08;;;;;12.50;93374.00;;;;7397954;19;20164;-78
2023/03/23 05:13:36;;;;;;;1.70;1.48;;;;;12.50;93388.00;;;;7397774;19;20164;-76
2023/03/23 05:16:16;;;;;;;1.40;1.30;;;;;12.40;93384.00;;;;7397571;19;20566;-78
2023/03/23 05:18:46;;;;;;;1.58;1.40;;;;;12.60;93385.00;;;;7397562;19;20160;-77
2023/03/23 05:21:20;;;;;;;2.50;1.50;;;;;12.60;93386.00;;;;7401081;19;20136;-76
2023/03/23 05:23:54;;;;;;;3.30;1.40;;;;;12.60;93396.00;;;;7398643;19;20604;-77
2023/03/23 05:26:29;;;;;;;2.40;1.30;;;;;12.50;93394.00;;;;7398905;19;20144;-76
2023/03/23 05:28:58;;;;;;;1.70;1.60;;;;;12.40;93384.00;;;;7398717;19;20140;-74
2023/03/23 05:31:29;;;;;;;1.60;1.45;;;;;12.40;93391.00;;;;7397744;19;20498;-75
2023/03/23 05:34:03;;;;;;;1.55;1.45;;;;;12.40;93385.00;;;;7399484;19;20149;-76
2023/03/23 05:36:33;;;;;;;2.72;1.42;;;;;12.50;93390.00;;;;7398025;19;20140;-77
2023/03/23 05:39:09;;;;;;;2.42;1.50;;;;;12.30;93391.00;;;;7395871;19;20490;-77
2023/03/23 05:41:38;;;;;;;1.40;1.30;;;;;12.00;93392.00;;;;7395220;19;20129;-76
2023/03/23 05:44:19;;;;;;;1.67;1.40;;;;;11.70;93397.00;;;;7396431;19;20522;-74
2023/03/23 05:47:00;;;;;;;2.97;1.58;;;;;11.40;93395.00;;;;7400463;19;20583;-74
2023/03/23 05:49:28;;;;;;;1.30;1.20;;;;;11.30;93410.00;;;;7400361;19;20129;-76
2023/03/23 05:52:03;;;;;;;1.90;1.40;;;;;11.20;93403.00;;;;7395760;19;20484;-76
2023/03/23 05:54:30;;;;;;;4.07;1.80;;;;;11.30;93407.00;;;;7397306;19;20144;-77
2023/03/23 05:57:05;;;;;;;2.70;1.63;;;;;11.30;93412.00;;;;7398055;19;20602;-76
2023/03/23 05:59:33;;;;;;;3.10;1.48;;;;;11.10;93421.00;;;;7399364;19;20131;-78
2023/03/23 06:02:10;;;;;;;3.40;1.40;;;;;11.20;93429.00;;;;7397433;19;20137;-77
2023/03/23 06:04:40;;;;;;;2.83;1.73;;;;;11.00;93439.00;;;;7399226;19;20136;-76
2023/03/23 06:07:16;;;;;;;2.65;1.70;;;;;10.70;93444.00;;;;7398255;19;20124;-76
2023/03/23 06:09:43;;;;;;;1.77;1.33;;;;;10.20;93455.00;;;;7398272;19;20139;-76
2023/03/23 06:12:20;;;;;;;2.33;1.58;;;;;9.90;93456.00;;;;7397587;19;20622;-76
2023/03/23 06:15:08;;;;;;;2.35;1.70;;;;;9.60;93460.00;;;;7397588;19;20140;-79
2023/03/23 06:17:43;;;;;;;3.92;1.90;;;;;9.40;93471.00;;;;7398953;19;20632;-76
2023/03/23 06:20:17;;;;;;;2.67;1.77;;;;;9.20;93475.00;;;;7399394;19;20630;-79
2023/03/23 06:22:51;;;;;;;2.93;1.83;;;;;9.30;93477.00;;;;7397221;19;20626;-78
2023/03/23 06:25:19;;;;;;;3.50;2.07;;;;;9.10;93471.00;;;;7397696;19;20155;-78
2023/03/23 06:27:56;;;;;;;2.72;1.58;;;;;9.10;93482.00;;;;7398036;19;20133;-78
2023/03/23 06:30:25;;;;;;;1.80;1.60;;;;;9.10;93487.00;;;;7395637;19;20137;-77
2023/03/23 06:33:00;;;;;;;1.90;1.60;;;;;9.20;93486.00;;;;7398089;19;20611;-80
2023/03/23 06:35:27;;;;;;;3.67;1.73;;;;;9.30;93481.00;;;;7397121;19;20499;-77
2023/03/23 06:38:02;;;;;;;4.50;1.97;;;;;9.30;93484.00;;;;7397349;19;20151;-78
2023/03/23 06:40:37;;;;;;;4.40;2.10;;;;;9.50;93471.00;;;;7399304;19;20614;-75
2023/03/23 06:43:11;;;;;;;3.50;2.07;;;;;9.40;93477.00;;;;7401428;19;20128;-75
2023/03/23 06:45:47;;;;;;;2.30;1.60;;;;;9.30;93486.00;;;;7404459;19;20139;-75
2023/03/23 06:48:25;;;;;;;3.30;1.90;;;;;9.50;93484.00;;;;7405402;19;20168;-78
2023/03/23 06:50:59;;;;;;;5.60;2.00;;;;;9.30;93484.00;;;;7405391;19;20152;-80
2023/03/23 06:53:27;;;;;;;2.63;1.70;;;;;9.50;93488.00;;;;7407060;19;20133;-80
2023/03/23 06:56:01;;;;;;;3.47;1.90;;;;;9.40;93484.00;;;;7408675;19;20138;-81
2023/03/23 06:58:29;;;;;;;2.20;1.90;;;;;9.60;93498.00;;;;7408087;19;20156;-79
2023/03/23 07:01:03;;;;;;;6.13;1.77;;;;;9.50;93500.00;;;;7407017;19;20656;-78
2023/03/23 07:03:31;;;;;;;1.80;1.67;;;;;9.50;93503.00;;;;7402522;19;20149;-83
2023/03/23 07:06:06;;;;;;;3.53;1.87;;;;;9.40;93514.00;;;;7405301;19;20196;-79
2023/03/23 07:08:34;;;;;;;5.57;1.70;;;;;9.60;93514.00;;;;7405409;19;20592;-80
2023/03/23 07:11:10;;;;;;;2.17;1.90;;;;;9.40;93515.00;;;;7402206;19;20148;-76
2023/03/23 07:13:38;;;;;;;4.68;1.92;;;;;9.80;93518.00;;;;7404163;19;20145;-76
2023/03/23 07:16:26;;;;;;;2.63;1.87;;;;;9.90;93533.00;;;;7401252;19;20160;-76
2023/03/23 07:19:00;;;;;;;2.90;2.00;;;;;10.10;93536.00;;;;7403470;19;20595;-75
2023/03/23 07:21:34;;;;;;;2.77;2.00;;;;;10.00;93541.00;;;;7404209;19;20148;-76
2023/03/23 07:24:02;;;;;;;3.67;1.90;;;;;10.10;93538.00;;;;7404863;19;20141;-75
2023/03/23 07:26:37;;;;;;;2.50;1.83;;;;;10.20;93549.00;;;;7402893;19;20151;-76
2023/03/23 07:29:04;;;;;;;2.63;2.10;;;;;10.00;93540.00;;;;7402990;19;20129;-76
2023/03/23 07:31:38;;;;;;;3.10;1.77;;;;;10.10;93538.00;;;;7402067;19;20133;-75
2023/03/23 07:34:14;;;;;;;2.80;1.90;;;;;10.30;93532.00;;;;7405020;19;20200;-76
2023/03/23 07:37:11;;;;;;;2.97;1.97;;;;;10.40;93528.00;;;;7402800;19;20147;-76
2023/03/23 07:39:46;;;;;;;2.47;1.75;;;;;10.70;93518.00;;;;7403406;19;20619;-75
2023/03/23 07:42:21;;;;;;;3.15;2.10;;;;;10.70;93520.00;;;;7404004;19;20471;-74
2023/03/23 07:44:50;;;;;;;3.03;2.08;;;;;10.80;93527.00;;;;7404524;19;20144;-73
2023/03/23 07:47:24;;;;;;;2.13;1.92;;;;;10.80;93530.00;;;;7403283;19;20677;-74
2023/03/23 07:50:01;;;;;;;1.92;1.77;;;;;10.70;93521.00;;;;7404112;19;20121;-75
2023/03/23 07:52:36;;;;;;;2.22;1.90;;;;;10.60;93537.00;;;;7397179;19;20599;-76
2023/03/23 07:55:17;;;;;;;3.80;2.17;;;;;10.70;93527.00;;;;7403827;19;20461;-75
2023/03/23 07:57:53;;;;;;;5.40;2.05;;;;;10.60;93527.00;;;;7404459;19;20600;-74
2023/03/23 08:00:27;;;;;;;3.00;2.00;;;;;10.90;93531.00;;;;7401662;19;20144;-74
2023/03/23 08:03:02;;;;;;;4.55;2.33;;;;;10.70;93530.00;;;;7400153;19;20168;-75
2023/03/23 08:05:29;;;;;;;2.70;1.75;;;;;10.90;93539.00;;;;7403340;19;20145;-75
2023/03/23 08:08:04;;;;;;;3.67;1.95;;;;;11.00;93532.00;;;;7402453;19;20154;-74
2023/03/23 08:10:35;;;;;;;2.30;2.00;;;;;11.00;93541.00;;;;7401690;19;20137;-74
2023/03/23 08:13:03;;;;;;;2.17;1.75;;;;;10.90;93546.00;;;;7402544;19;20157;-74
2023/03/23 08:15:38;;;;;;;2.30;1.90;;;;;10.70;93546.00;;;;7399929;19;20538;-74
2023/03/23 08:18:18;;;;;;;2.65;1.85;;;;;10.30;93548.00;;;;7401502;19;20152;-75
2023/03/23 08:20:53;;;;;;;3.03;2.05;;;;;10.20;93547.00;;;;7404048;19;20449;-75
2023/03/23 08:23:21;;;;;;;3.08;1.98;;;;;10.10;93553.00;;;;7402032;19;20145;-77
2023/03/23 08:25:56;;;;;;;5.20;2.10;;;;;9.90;93557.00;;;;7401241;19;20144;-76
2023/03/23 08:28:23;;;;;;;2.95;2.00;;;;;9.90;93552.00;;;;7401522;19;20617;-75
2023/03/23 08:31:06;;;;;;;3.00;2.03;;;;;9.80;93554.00;;;;7401229;19;20137;-74
2023/03/23 08:33:42;;;;;;;2.55;2.25;;;;;9.80;93562.00;;;;7397164;19;20982;-76
2023/03/23 08:36:16;;;;;;;5.85;2.30;;;;;9.80;93562.00;;;;7401648;19;20124;-76
2023/03/23 08:38:44;;;;;;;3.75;2.33;;;;;9.80;93560.00;;;;7401041;19;20127;-75
2023/03/23 08:41:18;;;;;;;5.85;2.33;;;;;10.00;93505.00;;;;7401149;19;20150;-77
2023/03/23 08:43:46;;;;;;;2.17;1.98;;;;;10.20;93568.00;;;;7401072;19;20145;-79
2023/03/23 08:46:20;;;;;;;3.00;2.20;;;;;10.10;93577.00;;;;7403063;19;20136;-80
2023/03/23 08:48:50;;;;;;;4.50;2.30;;;;;10.20;93577.00;;;;7403368;19;20611;-76
2023/03/23 08:51:25;;;;;;;3.23;2.30;;;;;10.20;93576.00;;;;7401422;19;20139;-77
2023/03/23 08:53:59;;;;;;;3.03;2.40;;;;;10.40;93576.00;;;;7400849;19;20133;-76
2023/03/23 08:56:36;;;;;;;2.38;2.15;;;;;10.40;93575.00;;;;7402070;19;20595;-75
2023/03/23 08:59:03;;;;;;;3.88;2.13;;;;;10.50;93511.00;;;;7400998;19;20496;-73
2023/03/23 09:01:37;;;;;;;5.40;2.38;;;;;10.60;93579.00;;;;7402934;19;20137;-77
2023/03/23 09:04:04;;;;;;;3.15;2.22;;;;;10.70;93581.00;;;;7399242;19;20137;-75
2023/03/23 09:06:41;;;;;;;3.70;2.15;;;;;10.90;93582.00;;;;7402158;19;20132;-76
2023/03/23 09:09:09;;;;;;;3.83;2.10;;;;;11.10;93593.00;;;;7401133;19;20609;-76
2023/03/23 09:11:43;;;;;;;2.90;2.15;;;;;11.10;93596.00;;;;7400779;19;20132;-77
2023/03/23 09:14:17;;;;;;;3.28;2.38;;;;;11.00;93600.00;;;;7400252;19;20545;-76
2023/03/23 09:16:57;;;;;;;3.17;2.03;;;;;10.80;93606.00;;;;7387126;19;20199;-77
2023/03/23 09:19:34;;;;;;;2.30;2.10;;;;;10.80;93607.00;;;;7398636;19;20129;-76
2023/03/23 09:22:03;;;;;;;3.95;2.08;;;;;10.80;93616.00;;;;7400556;19;20489;-78
2023/03/23 09:24:37;;;;;;;3.05;2.60;;;;;10.80;93619.00;;;;7399748;19;20132;-78
2023/03/23 09:27:05;;;;;;;4.32;2.40;;;;;10.50;93625.00;;;;7399133;19;20141;-78
2023/03/23 09:29:40;;;;;;;2.47;2.25;;;;;10.60;93630.00;;;;7400325;19;20674;-76
2023/03/23 09:32:15;;;;;;;3.03;2.28;;;;;10.40;93630.00;;;;7398085;19;20144;-78
2023/03/23 09:34:49;;;;;;;5.70;2.20;;;;;10.30;93632.00;;;;7398814;19;20630;-74
2023/03/23 09:37:23;;;;;;;3.30;2.38;;;;;10.20;93627.00;;;;7398201;19;20141;-77
2023/03/23 09:39:57;;;;;;;2.85;2.25;;;;;10.20;93636.00;;;;7399949;19;20124;-74
2023/03/23 09:42:45;;;;;;;3.08;2.10;;;;;10.40;93642.00;;;;7394951;19;20152;-76
2023/03/23 09:45:23;;;;;;;5.13;2.60;;;;;10.70;93621.00;;;;7398054;19;20484;-74
2023/03/23 09:48:11;;;;;;;5.75;2.95;;;;;11.30;93622.00;;;;7396574;19;20172;-78
2023/03/23 09:50:48;;;;;;;2.45;2.20;;;;;11.90;93623.00;;;;7398103;19;20148;-76
2023/03/23 09:53:41;;;;;;;3.03;2.30;;;;;12.50;93621.00;;;;7398895;19;20200;-76
2023/03/23 09:56:14;;;;;;;3.45;2.45;;;;;13.20;93625.00;;;;7398087;19;20589;-75
2023/03/23 09:59:02;;;;;;;2.38;2.08;;;;;13.30;93609.00;;;;7397432;19;20145;-74
2023/03/23 10:01:45;;;;;;;3.22;1.98;;;;;12.80;93610.00;;;;7399160;19;20132;-75
2023/03/23 10:04:41;;;;;;;2.60;2.15;;;;;12.40;93606.00;;;;7398378;19;20145;-73
2023/03/23 10:07:15;;;;;;;7.43;2.13;;;;;13.00;93607.00;;;;7398378;19;20200;-74
2023/03/23 10:09:56;;;;;;;3.45;2.20;;;;;12.80;93609.00;;;;7397897;19;21107;-75
2023/03/23 10:12:56;;;;;;;3.67;1.70;;;;;12.20;93613.00;;;;7397339;19;20737;-74
2023/03/23 10:15:46;;;;;;;5.05;2.00;;;;;11.90;93621.00;;;;7399487;19;20472;-77
2023/03/23 10:18:47;;;;;;;3.03;2.08;;;;;11.90;93618.00;;;;7397660;19;20141;-78
2023/03/23 10:21:24;;;;;;;3.10;1.60;;;;;12.10;93622.00;;;;7399441;19;20129;-76
2023/03/23 10:24:04;;;;;;;3.58;2.38;;;;;12.70;93621.00;;;;7398886;19;20136;-75
2023/03/23 10:27:10;;;;;;;2.97;1.80;;;;;13.00;93627.00;;;;7399005;19;20158;-74
2023/03/23 10:29:44;;;;;;;2.47;1.60;;;;;12.90;93640.00;;;;7395071;19;20474;-75
2023/03/23 10:32:40;;;;;;;2.22;1.90;;;;;12.90;93637.00;;;;7400547;19;20137;-74
2023/03/23 10:35:19;;;;;;;2.70;1.88;;;;;12.60;93638.00;;;;7399092;19;20204;-74
2023/03/23 10:38:03;;;;;;;2.13;1.90;;;;;12.80;93637.00;;;;7399008;19;20125;-74
2023/03/23 10:40:53;;;;;;;2.40;1.63;;;;;12.60;93621.00;;;;7399966;19;20133;-78
2023/03/23 10:43:23;;;;;;;2.53;1.80;;;;;12.80;93630.00;;;;7399649;19;20612;-73
2023/03/23 10:46:10;;;;;;;1.90;1.60;;;;;13.10;93628.00;;;;7399334;19;20133;-74
2023/03/23 10:48:39;;;;;;;2.10;1.90;;;;;12.50;93636.00;;;;7400673;19;20136;-73
2023/03/23 10:51:16;;;;;;;2.00;1.60;;;;;12.30;93626.00;;;;7400263;19;20129;-75
2023/03/23 10:53:55;;;;;;;2.00;1.77;;;;;12.80;93626.00;;;;7400305;19;20129;-73
2023/03/23 10:56:27;;;;;;;2.08;1.88;;;;;12.30;93622.00;;;;7398740;19;20160;-73
2023/03/23 10:59:29;;;;;;;3.33;1.85;;;;;12.40;93619.00;;;;7399222;19;20733;-73
2023/03/23 11:02:16;;;;;;;3.25;1.80;;;;;12.70;93626.00;;;;7397597;19;20172;-73
2023/03/23 11:05:04;;;;;;;3.70;2.17;;;;;13.00;93621.00;;;;7398504;19;20159;-74
2023/03/23 11:07:57;;;;;;;2.42;1.95;;;;;12.90;93621.00;;;;7397917;19;20179;-73
2023/03/23 11:10:36;;;;;;;4.20;1.90;;;;;12.80;93613.00;;;;7398209;19;20141;-74
2023/03/23 11:13:15;;;;;;;4.20;2.10;;;;;13.00;93614.00;;;;7395953;19;20160;-75
2023/03/23 11:15:45;;;;;;;4.63;2.05;;;;;13.20;93610.00;;;;7396788;19;20194;-74
2023/03/23 11:18:26;;;;;;;3.65;2.20;;;;;13.10;93611.00;;;;7398065;19;20580;-75
2023/03/23 11:20:58;;;;;;;14.43;2.20;;;;;13.50;93611.00;;;;7397415;19;20137;-74
2023/03/23 11:23:42;;;;;;;2.95;2.10;;;;;14.10;93610.00;;;;7397074;19;20140;-75
2023/03/23 11:26:21;;;;;;;3.08;2.00;;;;;13.60;93611.00;;;;7397932;19;20157;-76
2023/03/23 11:29:06;;;;;;;2.80;2.05;;;;;14.00;93608.00;;;;7401337;19;20133;-79
2023/03/23 11:31:44;;;;;;;3.85;2.05;;;;;14.10;93614.00;;;;7405983;19;20132;-75
2023/03/23 11:34:30;;;;;;;3.20;2.15;;;;;14.00;93607.00;;;;7404052;19;20162;-75
2023/03/23 11:37:01;;;;;;;2.03;1.85;;;;;13.70;93617.00;;;;7405222;19;20216;-74
2023/03/23 11:39:53;;;;;;;3.33;2.05;;;;;13.80;93614.00;;;;7405486;19;20136;-73
2023/03/23 11:42:57;;;;;;;2.05;1.85;;;;;13.60;93622.00;;;;7404597;19;20152;-74
2023/03/23 11:45:59;;;;;;;2.63;2.20;;;;;13.70;93626.00;;;;7405557;19;20147;-76
2023/03/23 11:48:40;;;;;;;4.65;2.08;;;;;13.10;93630.00;;;;7404911;19;20153;-75
2023/03/23 11:51:29;;;;;;;3.20;2.10;;;;;13.30;93630.00;;;;7405912;19;20469;-75
2023/03/23 11:54:37;;;;;;;2.65;1.90;;;;;12.60;93636.00;;;;7400796;19;20163;-75
2023/03/23 11:57:13;;;;;;;3.55;1.90;;;;;12.60;93638.00;;;;7406622;19;20153;-74
2023/03/23 11:59:48;;;;;;;3.00;1.90;;;;;12.70;93630.00;;;;7403965;19;20563;-74
2023/03/23 12:02:53;;;;;;;3.70;2.22;;;;;13.00;93634.00;;;;7402661;19;20149;-75
2023/03/23 12:05:40;;;;;;;3.05;1.73;;;;;13.00;93638.00;;;;7402862;19;20142;-77
2023/03/23 12:08:44;;;;;;;3.35;1.73;;;;;12.50;93633.00;;;;7403335;19;20488;-74
2023/03/23 12:11:41;;;;;;;4.32;2.00;;;;;12.60;93640.00;;;;7402773;19;20224;-74
2023/03/23 12:14:40;;;;;;;2.88;2.05;;;;;12.50;93634.00;;;;7401132;19;20133;-74
2023/03/23 12:17:37;;;;;;;3.97;1.92;;;;;12.70;93630.00;;;;7404546;19;20168;-75
2023/03/23 12:20:31;;;;;;;2.70;2.30;;;;;13.00;93630.00;;;;7404974;19;20146;-74
2023/03/23 12:23:21;;;;;;;2.58;1.95;;;;;12.90;93616.00;;;;7404344;19;20641;-74
2023/03/23 12:26:09;;;;;;;3.05;1.83;;;;;13.80;93594.00;;;;7402337;19;20176;-75
2023/03/23 12:29:16;;;;;;;4.82;2.22;;;;;15.40;93578.00;;;;7399542;19;20153;-75
2023/03/23 12:32:28;;;;;;;3.33;1.80;;;;;16.60;93564.00;;;;7403367;19;20137;-77
2023/03/23 12:35:09;;;;;;;6.55;1.70;;;;;17.20;93573.00;;;;7403506;19;20212;-77
2023/03/23 12:38:00;;;;;;;4.97;2.05;;;;;16.40;93586.00;;;;7400927;19;20140;-75
2023/03/23 12:40:48;;;;;;;2.45;1.80;;;;;15.60;93571.00;;;;7400101;19;20155;-74
2023/03/23 12:43:46;;;;;;;5.25;2.40;;;;;15.20;93564.00;;;;7401975;19;20149;-74
2023/03/23 12:46:51;;;;;;;2.75;2.38;;;;;14.60;93577.00;;;;7402766;19;20132;-77
2023/03/23 12:49:28;;;;;;;2.90;1.92;;;;;14.90;93571.00;;;;7402457;19;20209;-75
2023/03/23 12:52:22;;;;;;;2.47;2.28;;;;;15.00;93570.00;;;;7402556;19;20136;-76
2023/03/23 12:55:46;;;;;;;2.30;2.10;;;;;14.70;93565.00;;;;7402002;19;20173;-76
2023/03/23 12:58:27;;;;;;;2.90;2.15;;;;;14.80;93559.00;;;;7399538;19;20577;-77
2023/03/23 13:01:23;;;;;;;4.18;2.38;;;;;14.50;93563.00;;;;7397782;19;20140;-77
2023/03/23 13:03:59;;;;;;;2.22;2.03;;;;;15.10;93544.00;;;;7399405;19;20683;-75
2023/03/23 13:06:44;;;;;;;2.67;2.17;;;;;16.00;93535.00;;;;7401378;19;20132;-76
2023/03/23 13:09:28;;;;;;;2.63;2.15;;;;;15.90;93542.00;;;;7402537;19;20770;-76
2023/03/23 13:11:59;;;;;;;2.67;2.20;;;;;16.10;93541.00;;;;7400186;19;20146;-74
2023/03/23 13:14:52;;;;;;;2.55;2.08;;;;;15.90;93542.00;;;;7401700;19;20159;-75
2023/03/23 13:18:03;;;;;;;2.40;2.20;;;;;15.50;93539.00;;;;7400938;19;20160;-74